sensor_id;sensor_type;location;lat;lon;timestamp;P1;durP1;ratioP1;P2;durP2;ratioP2
22780;SDS011;11557;50.884;4.322;2023-06-19T00:01:55;3.30;;;1.58;;
22780;SDS011;11557;50.884;4.322;2023-06-19T00:04:21;1.25;;;1.15;;
22780;SDS011;11557;50.884;4.322;2023-06-19T00:06:46;0.98;;;0.98;;
22780;SDS011;11557;50.884;4.322;2023-06-19T00:09:13;0.55;;;0.55;;
22780;SDS011;11557;50.884;4.322;2023-06-19T00:11:39;1.40;;;0.98;;
22780;SDS011;11557;50.884;4.322;2023-06-19T00:14:05;1.63;;;0.98;;
22780;SDS011;11557;50.884;4.322;2023-06-19T00:16:31;1.77;;;0.85;;
22780;SDS011;11557;50.884;4.322;2023-06-19T00:18:58;0.50;;;0.47;;
22780;SDS011;11557;50.884;4.322;2023-06-19T00:21:24;1.40;;;1.23;;
22780;SDS011;11557;50.884;4.322;2023-06-19T00:23:51;0.85;;;0.68;;
22780;SDS011;11557;50.884;4.322;2023-06-19T00:26:17;0.77;;;0.77;;
22780;SDS011;11557;50.884;4.322;2023-06-19T00:28:44;2.45;;;0.82;;
22780;SDS011;11557;50.884;4.322;2023-06-19T00:31:12;3.72;;;1.10;;
22780;SDS011;11557;50.884;4.322;2023-06-19T00:33:40;1.65;;;0.55;;
22780;SDS011;11557;50.884;4.322;2023-06-19T00:36:09;0.82;;;0.82;;
22780;SDS011;11557;50.884;4.322;2023-06-19T00:38:36;1.45;;;0.65;;
22780;SDS011;11557;50.884;4.322;2023-06-19T00:41:03;1.30;;;1.05;;
22780;SDS011;11557;50.884;4.322;2023-06-19T00:43:28;1.13;;;0.70;;
22780;SDS011;11557;50.884;4.322;2023-06-19T00:45:55;1.15;;;1.05;;
22780;SDS011;11557;50.884;4.322;2023-06-19T00:48:22;1.42;;;0.70;;
22780;SDS011;11557;50.884;4.322;2023-06-19T00:50:49;1.95;;;0.85;;
22780;SDS011;11557;50.884;4.322;2023-06-19T00:53:15;1.80;;;1.05;;
22780;SDS011;11557;50.884;4.322;2023-06-19T00:55:42;0.80;;;0.65;;
22780;SDS011;11557;50.884;4.322;2023-06-19T00:58:09;1.52;;;1.00;;
22780;SDS011;11557;50.884;4.322;2023-06-19T01:00:35;1.98;;;1.48;;
22780;SDS011;11557;50.884;4.322;2023-06-19T01:03:01;1.52;;;1.10;;
22780;SDS011;11557;50.884;4.322;2023-06-19T01:05:27;0.98;;;0.90;;
22780;SDS011;11557;50.884;4.322;2023-06-19T01:11:06;1.30;;;0.50;;
22780;SDS011;11557;50.884;4.322;2023-06-19T01:13:52;1.52;;;1.05;;
22780;SDS011;11557;50.884;4.322;2023-06-19T01:16:21;0.40;;;0.40;;
22780;SDS011;11557;50.884;4.322;2023-06-19T01:18:46;1.40;;;1.05;;
22780;SDS011;11557;50.884;4.322;2023-06-19T01:21:14;0.60;;;0.50;;
22780;SDS011;11557;50.884;4.322;2023-06-19T01:23:42;0.75;;;0.63;;
22780;SDS011;11557;50.884;4.322;2023-06-19T01:26:08;2.28;;;1.27;;
22780;SDS011;11557;50.884;4.322;2023-06-19T01:28:39;7.25;;;1.27;;
22780;SDS011;11557;50.884;4.322;2023-06-19T01:31:08;1.23;;;0.60;;
22780;SDS011;11557;50.884;4.322;2023-06-19T01:33:38;1.65;;;0.85;;
22780;SDS011;11557;50.884;4.322;2023-06-19T01:36:06;1.15;;;0.65;;
22780;SDS011;11557;50.884;4.322;2023-06-19T01:38:32;2.05;;;0.93;;
22780;SDS011;11557;50.884;4.322;2023-06-19T01:40:59;3.42;;;1.20;;
22780;SDS011;11557;50.884;4.322;2023-06-19T01:43:27;0.85;;;0.80;;
22780;SDS011;11557;50.884;4.322;2023-06-19T01:45:54;1.13;;;0.98;;
22780;SDS011;11557;50.884;4.322;2023-06-19T01:48:20;2.08;;;1.00;;
22780;SDS011;11557;50.884;4.322;2023-06-19T01:50:49;0.88;;;0.80;;
22780;SDS011;11557;50.884;4.322;2023-06-19T01:53:15;2.40;;;1.35;;
22780;SDS011;11557;50.884;4.322;2023-06-19T01:55:41;1.20;;;0.90;;
22780;SDS011;11557;50.884;4.322;2023-06-19T01:58:07;1.10;;;0.70;;
22780;SDS011;11557;50.884;4.322;2023-06-19T02:00:33;0.57;;;0.55;;
22780;SDS011;11557;50.884;4.322;2023-06-19T02:03:02;1.33;;;1.23;;
22780;SDS011;11557;50.884;4.322;2023-06-19T02:05:29;2.05;;;0.95;;
22780;SDS011;11557;50.884;4.322;2023-06-19T02:07:57;0.85;;;0.80;;
22780;SDS011;11557;50.884;4.322;2023-06-19T02:10:22;1.60;;;1.02;;
22780;SDS011;11557;50.884;4.322;2023-06-19T02:12:48;1.02;;;0.75;;
22780;SDS011;11557;50.884;4.322;2023-06-19T02:15:14;5.70;;;1.48;;
22780;SDS011;11557;50.884;4.322;2023-06-19T02:17:39;7.07;;;1.15;;
22780;SDS011;11557;50.884;4.322;2023-06-19T02:20:07;2.53;;;1.30;;
22780;SDS011;11557;50.884;4.322;2023-06-19T02:22:39;3.15;;;1.55;;
22780;SDS011;11557;50.884;4.322;2023-06-19T02:25:05;2.90;;;1.30;;
22780;SDS011;11557;50.884;4.322;2023-06-19T02:27:31;0.90;;;0.82;;
22780;SDS011;11557;50.884;4.322;2023-06-19T02:29:57;1.02;;;0.88;;
22780;SDS011;11557;50.884;4.322;2023-06-19T02:32:23;1.40;;;1.17;;
22780;SDS011;11557;50.884;4.322;2023-06-19T02:34:48;1.73;;;1.02;;
22780;SDS011;11557;50.884;4.322;2023-06-19T02:37:14;2.00;;;1.33;;
22780;SDS011;11557;50.884;4.322;2023-06-19T02:39:40;1.40;;;1.30;;
22780;SDS011;11557;50.884;4.322;2023-06-19T02:42:05;0.77;;;0.73;;
22780;SDS011;11557;50.884;4.322;2023-06-19T02:44:31;3.15;;;1.05;;
22780;SDS011;11557;50.884;4.322;2023-06-19T02:46:57;1.35;;;0.80;;
22780;SDS011;11557;50.884;4.322;2023-06-19T02:49:23;2.72;;;0.93;;
22780;SDS011;11557;50.884;4.322;2023-06-19T02:51:48;1.30;;;0.68;;
22780;SDS011;11557;50.884;4.322;2023-06-19T02:54:14;2.30;;;0.98;;
22780;SDS011;11557;50.884;4.322;2023-06-19T02:56:40;1.00;;;0.70;;
22780;SDS011;11557;50.884;4.322;2023-06-19T02:59:05;0.98;;;0.90;;
22780;SDS011;11557;50.884;4.322;2023-06-19T03:01:31;1.00;;;0.90;;
22780;SDS011;11557;50.884;4.322;2023-06-19T03:03:57;2.22;;;1.25;;
22780;SDS011;11557;50.884;4.322;2023-06-19T03:06:22;1.00;;;0.90;;
22780;SDS011;11557;50.884;4.322;2023-06-19T03:08:48;1.10;;;1.10;;
22780;SDS011;11557;50.884;4.322;2023-06-19T03:11:15;1.40;;;0.80;;
22780;SDS011;11557;50.884;4.322;2023-06-19T03:16:13;1.67;;;1.15;;
22780;SDS011;11557;50.884;4.322;2023-06-19T03:18:39;1.60;;;1.25;;
22780;SDS011;11557;50.884;4.322;2023-06-19T03:21:06;1.30;;;1.00;;
22780;SDS011;11557;50.884;4.322;2023-06-19T03:23:32;1.02;;;0.88;;
22780;SDS011;11557;50.884;4.322;2023-06-19T03:25:57;3.05;;;1.00;;
22780;SDS011;11557;50.884;4.322;2023-06-19T03:28:23;1.75;;;0.88;;
22780;SDS011;11557;50.884;4.322;2023-06-19T03:30:49;0.98;;;0.95;;
22780;SDS011;11557;50.884;4.322;2023-06-19T03:33:15;1.30;;;0.80;;
22780;SDS011;11557;50.884;4.322;2023-06-19T03:35:40;1.65;;;1.02;;
22780;SDS011;11557;50.884;4.322;2023-06-19T03:38:06;1.60;;;1.23;;
22780;SDS011;11557;50.884;4.322;2023-06-19T03:40:32;1.73;;;0.88;;
22780;SDS011;11557;50.884;4.322;2023-06-19T03:42:57;1.92;;;1.20;;
22780;SDS011;11557;50.884;4.322;2023-06-19T03:45:23;2.00;;;1.48;;
22780;SDS011;11557;50.884;4.322;2023-06-19T03:47:48;2.40;;;1.67;;
22780;SDS011;11557;50.884;4.322;2023-06-19T03:50:14;1.45;;;1.35;;
22780;SDS011;11557;50.884;4.322;2023-06-19T03:52:39;1.75;;;1.27;;
22780;SDS011;11557;50.884;4.322;2023-06-19T03:55:05;1.45;;;1.05;;
22780;SDS011;11557;50.884;4.322;2023-06-19T03:57:31;2.95;;;1.52;;
22780;SDS011;11557;50.884;4.322;2023-06-19T03:59:57;1.80;;;1.27;;
22780;SDS011;11557;50.884;4.322;2023-06-19T04:02:22;3.38;;;1.17;;
22780;SDS011;11557;50.884;4.322;2023-06-19T04:04:48;1.17;;;0.75;;
22780;SDS011;11557;50.884;4.322;2023-06-19T04:07:13;0.70;;;0.60;;
22780;SDS011;11557;50.884;4.322;2023-06-19T04:09:39;1.98;;;1.25;;
22780;SDS011;11557;50.884;4.322;2023-06-19T04:12:05;16.70;;;1.80;;
22780;SDS011;11557;50.884;4.322;2023-06-19T04:14:31;3.95;;;1.35;;
22780;SDS011;11557;50.884;4.322;2023-06-19T04:16:56;1.67;;;1.23;;
22780;SDS011;11557;50.884;4.322;2023-06-19T04:19:22;1.25;;;1.15;;
22780;SDS011;11557;50.884;4.322;2023-06-19T04:21:47;2.40;;;0.93;;
22780;SDS011;11557;50.884;4.322;2023-06-19T04:24:13;3.53;;;1.38;;
22780;SDS011;11557;50.884;4.322;2023-06-19T04:26:39;1.38;;;1.27;;
22780;SDS011;11557;50.884;4.322;2023-06-19T04:29:04;1.02;;;0.90;;
22780;SDS011;11557;50.884;4.322;2023-06-19T04:31:32;1.75;;;1.65;;
22780;SDS011;11557;50.884;4.322;2023-06-19T04:33:57;1.27;;;0.95;;
22780;SDS011;11557;50.884;4.322;2023-06-19T04:36:23;2.72;;;1.35;;
22780;SDS011;11557;50.884;4.322;2023-06-19T04:38:49;2.17;;;1.00;;
22780;SDS011;11557;50.884;4.322;2023-06-19T04:41:18;1.27;;;1.17;;
22780;SDS011;11557;50.884;4.322;2023-06-19T04:43:43;0.75;;;0.75;;
22780;SDS011;11557;50.884;4.322;2023-06-19T04:46:09;4.07;;;1.73;;
22780;SDS011;11557;50.884;4.322;2023-06-19T04:48:35;3.00;;;1.70;;
22780;SDS011;11557;50.884;4.322;2023-06-19T04:51:02;2.40;;;1.48;;
22780;SDS011;11557;50.884;4.322;2023-06-19T04:53:28;3.55;;;2.05;;
22780;SDS011;11557;50.884;4.322;2023-06-19T04:55:56;3.15;;;1.63;;
22780;SDS011;11557;50.884;4.322;2023-06-19T04:58:22;1.73;;;1.10;;
22780;SDS011;11557;50.884;4.322;2023-06-19T05:00:47;4.30;;;1.33;;
22780;SDS011;11557;50.884;4.322;2023-06-19T05:03:17;2.28;;;1.33;;
22780;SDS011;11557;50.884;4.322;2023-06-19T05:05:43;2.92;;;2.08;;
22780;SDS011;11557;50.884;4.322;2023-06-19T05:08:09;2.83;;;1.48;;
22780;SDS011;11557;50.884;4.322;2023-06-19T05:10:35;3.17;;;1.88;;
22780;SDS011;11557;50.884;4.322;2023-06-19T05:13:01;3.65;;;2.45;;
22780;SDS011;11557;50.884;4.322;2023-06-19T05:15:27;1.80;;;1.33;;
22780;SDS011;11557;50.884;4.322;2023-06-19T05:17:53;3.92;;;1.55;;
22780;SDS011;11557;50.884;4.322;2023-06-19T05:20:19;1.80;;;1.65;;
22780;SDS011;11557;50.884;4.322;2023-06-19T05:22:45;2.58;;;1.40;;
22780;SDS011;11557;50.884;4.322;2023-06-19T05:25:10;4.70;;;3.00;;
22780;SDS011;11557;50.884;4.322;2023-06-19T05:27:36;4.25;;;2.80;;
22780;SDS011;11557;50.884;4.322;2023-06-19T05:30:02;2.30;;;1.95;;
22780;SDS011;11557;50.884;4.322;2023-06-19T05:32:30;2.75;;;2.22;;
22780;SDS011;11557;50.884;4.322;2023-06-19T05:34:55;2.78;;;1.70;;
22780;SDS011;11557;50.884;4.322;2023-06-19T05:37:21;3.53;;;2.10;;
22780;SDS011;11557;50.884;4.322;2023-06-19T05:39:47;3.10;;;2.33;;
22780;SDS011;11557;50.884;4.322;2023-06-19T05:42:13;2.67;;;2.13;;
22780;SDS011;11557;50.884;4.322;2023-06-19T05:44:39;3.47;;;3.10;;
22780;SDS011;11557;50.884;4.322;2023-06-19T05:47:05;3.05;;;2.20;;
22780;SDS011;11557;50.884;4.322;2023-06-19T05:49:31;1.88;;;1.70;;
22780;SDS011;11557;50.884;4.322;2023-06-19T05:51:56;3.55;;;2.10;;
22780;SDS011;11557;50.884;4.322;2023-06-19T05:54:24;2.28;;;1.85;;
22780;SDS011;11557;50.884;4.322;2023-06-19T05:56:50;3.85;;;3.05;;
22780;SDS011;11557;50.884;4.322;2023-06-19T05:59:16;4.07;;;2.40;;
22780;SDS011;11557;50.884;4.322;2023-06-19T06:01:42;4.70;;;2.58;;
22780;SDS011;11557;50.884;4.322;2023-06-19T06:04:07;3.08;;;2.17;;
22780;SDS011;11557;50.884;4.322;2023-06-19T06:06:33;3.38;;;2.15;;
22780;SDS011;11557;50.884;4.322;2023-06-19T06:09:00;3.03;;;2.72;;
22780;SDS011;11557;50.884;4.322;2023-06-19T06:11:25;2.88;;;2.03;;
22780;SDS011;11557;50.884;4.322;2023-06-19T06:13:51;6.75;;;3.28;;
22780;SDS011;11557;50.884;4.322;2023-06-19T06:16:17;4.20;;;3.13;;
22780;SDS011;11557;50.884;4.322;2023-06-19T06:18:42;3.45;;;2.30;;
22780;SDS011;11557;50.884;4.322;2023-06-19T06:21:09;4.82;;;2.45;;
22780;SDS011;11557;50.884;4.322;2023-06-19T06:23:37;4.93;;;3.40;;
22780;SDS011;11557;50.884;4.322;2023-06-19T06:26:03;5.60;;;2.58;;
22780;SDS011;11557;50.884;4.322;2023-06-19T06:28:29;3.58;;;3.10;;
22780;SDS011;11557;50.884;4.322;2023-06-19T06:30:56;3.35;;;2.22;;
22780;SDS011;11557;50.884;4.322;2023-06-19T06:33:22;5.68;;;4.20;;
22780;SDS011;11557;50.884;4.322;2023-06-19T06:35:49;5.60;;;3.53;;
22780;SDS011;11557;50.884;4.322;2023-06-19T06:38:14;3.65;;;3.28;;
22780;SDS011;11557;50.884;4.322;2023-06-19T06:40:40;4.70;;;3.28;;
22780;SDS011;11557;50.884;4.322;2023-06-19T06:43:07;5.82;;;3.75;;
22780;SDS011;11557;50.884;4.322;2023-06-19T06:45:33;5.10;;;2.88;;
22780;SDS011;11557;50.884;4.322;2023-06-19T06:47:59;4.35;;;3.53;;
22780;SDS011;11557;50.884;4.322;2023-06-19T06:50:25;5.13;;;2.83;;
22780;SDS011;11557;50.884;4.322;2023-06-19T06:52:50;6.65;;;3.25;;
22780;SDS011;11557;50.884;4.322;2023-06-19T06:55:16;3.65;;;2.78;;
22780;SDS011;11557;50.884;4.322;2023-06-19T06:57:42;3.72;;;3.22;;
22780;SDS011;11557;50.884;4.322;2023-06-19T07:00:07;2.95;;;2.15;;
22780;SDS011;11557;50.884;4.322;2023-06-19T07:02:37;4.93;;;3.58;;
22780;SDS011;11557;50.884;4.322;2023-06-19T07:05:03;4.75;;;2.42;;
22780;SDS011;11557;50.884;4.322;2023-06-19T07:07:29;3.53;;;2.55;;
22780;SDS011;11557;50.884;4.322;2023-06-19T07:09:54;3.78;;;3.42;;
22780;SDS011;11557;50.884;4.322;2023-06-19T07:12:20;3.22;;;2.90;;
22780;SDS011;11557;50.884;4.322;2023-06-19T07:14:46;5.82;;;3.22;;
22780;SDS011;11557;50.884;4.322;2023-06-19T07:17:11;6.15;;;3.17;;
22780;SDS011;11557;50.884;4.322;2023-06-19T07:19:37;5.10;;;3.80;;
22780;SDS011;11557;50.884;4.322;2023-06-19T07:22:02;5.22;;;3.28;;
22780;SDS011;11557;50.884;4.322;2023-06-19T07:24:28;3.58;;;3.25;;
22780;SDS011;11557;50.884;4.322;2023-06-19T07:26:54;5.40;;;2.40;;
22780;SDS011;11557;50.884;4.322;2023-06-19T07:29:21;4.30;;;2.60;;
22780;SDS011;11557;50.884;4.322;2023-06-19T07:31:47;4.55;;;3.08;;
22780;SDS011;11557;50.884;4.322;2023-06-19T07:34:13;7.07;;;2.65;;
22780;SDS011;11557;50.884;4.322;2023-06-19T07:36:39;4.45;;;2.13;;
22780;SDS011;11557;50.884;4.322;2023-06-19T07:39:04;3.17;;;2.22;;
22780;SDS011;11557;50.884;4.322;2023-06-19T07:41:30;6.85;;;3.42;;
22780;SDS011;11557;50.884;4.322;2023-06-19T07:43:56;3.40;;;2.17;;
22780;SDS011;11557;50.884;4.322;2023-06-19T07:46:21;3.10;;;2.40;;
22780;SDS011;11557;50.884;4.322;2023-06-19T07:48:47;3.92;;;2.78;;
22780;SDS011;11557;50.884;4.322;2023-06-19T07:51:12;5.05;;;2.38;;
22780;SDS011;11557;50.884;4.322;2023-06-19T07:53:38;3.58;;;2.53;;
22780;SDS011;11557;50.884;4.322;2023-06-19T07:56:04;6.25;;;3.15;;
22780;SDS011;11557;50.884;4.322;2023-06-19T07:58:30;2.88;;;2.22;;
22780;SDS011;11557;50.884;4.322;2023-06-19T08:00:56;7.43;;;2.85;;
22780;SDS011;11557;50.884;4.322;2023-06-19T08:03:21;3.30;;;2.55;;
22780;SDS011;11557;50.884;4.322;2023-06-19T08:05:49;7.75;;;2.90;;
22780;SDS011;11557;50.884;4.322;2023-06-19T08:08:14;3.03;;;2.33;;
22780;SDS011;11557;50.884;4.322;2023-06-19T08:10:40;3.30;;;2.45;;
22780;SDS011;11557;50.884;4.322;2023-06-19T08:13:06;5.03;;;2.55;;
22780;SDS011;11557;50.884;4.322;2023-06-19T08:15:31;2.58;;;2.00;;
22780;SDS011;11557;50.884;4.322;2023-06-19T08:17:57;6.65;;;3.38;;
22780;SDS011;11557;50.884;4.322;2023-06-19T08:20:23;5.13;;;2.63;;
22780;SDS011;11557;50.884;4.322;2023-06-19T08:22:48;3.33;;;2.03;;
22780;SDS011;11557;50.884;4.322;2023-06-19T08:25:14;5.93;;;2.05;;
22780;SDS011;11557;50.884;4.322;2023-06-19T08:27:40;7.30;;;2.97;;
22780;SDS011;11557;50.884;4.322;2023-06-19T08:30:06;3.88;;;2.10;;
22780;SDS011;11557;50.884;4.322;2023-06-19T08:32:33;2.80;;;1.52;;
22780;SDS011;11557;50.884;4.322;2023-06-19T08:34:59;3.40;;;2.08;;
22780;SDS011;11557;50.884;4.322;2023-06-19T08:37:25;4.45;;;2.25;;
22780;SDS011;11557;50.884;4.322;2023-06-19T08:39:50;2.15;;;1.42;;
22780;SDS011;11557;50.884;4.322;2023-06-19T08:42:16;3.33;;;2.10;;
22780;SDS011;11557;50.884;4.322;2023-06-19T08:44:41;3.05;;;2.25;;
22780;SDS011;11557;50.884;4.322;2023-06-19T08:47:07;3.38;;;2.38;;
22780;SDS011;11557;50.884;4.322;2023-06-19T08:49:35;3.17;;;2.00;;
22780;SDS011;11557;50.884;4.322;2023-06-19T08:52:01;6.28;;;2.40;;
22780;SDS011;11557;50.884;4.322;2023-06-19T08:54:28;3.88;;;2.05;;
22780;SDS011;11557;50.884;4.322;2023-06-19T08:56:54;5.55;;;2.67;;
22780;SDS011;11557;50.884;4.322;2023-06-19T08:59:20;5.72;;;1.98;;
22780;SDS011;11557;50.884;4.322;2023-06-19T09:01:50;2.55;;;1.40;;
22780;SDS011;11557;50.884;4.322;2023-06-19T09:04:20;4.50;;;2.10;;
22780;SDS011;11557;50.884;4.322;2023-06-19T09:09:14;3.05;;;2.10;;
22780;SDS011;11557;50.884;4.322;2023-06-19T09:11:41;4.82;;;2.13;;
22780;SDS011;11557;50.884;4.322;2023-06-19T09:14:11;3.92;;;2.35;;
22780;SDS011;11557;50.884;4.322;2023-06-19T09:16:38;6.18;;;2.20;;
22780;SDS011;11557;50.884;4.322;2023-06-19T09:19:04;3.05;;;1.48;;
22780;SDS011;11557;50.884;4.322;2023-06-19T09:21:30;2.78;;;1.63;;
22780;SDS011;11557;50.884;4.322;2023-06-19T09:24:02;2.90;;;1.52;;
22780;SDS011;11557;50.884;4.322;2023-06-19T09:26:28;5.22;;;2.38;;
22780;SDS011;11557;50.884;4.322;2023-06-19T09:28:54;2.92;;;1.50;;
22780;SDS011;11557;50.884;4.322;2023-06-19T09:31:20;3.08;;;2.00;;
22780;SDS011;11557;50.884;4.322;2023-06-19T09:33:56;2.25;;;1.55;;
22780;SDS011;11557;50.884;4.322;2023-06-19T09:36:21;4.45;;;1.90;;
22780;SDS011;11557;50.884;4.322;2023-06-19T09:38:47;4.07;;;1.27;;
22780;SDS011;11557;50.884;4.322;2023-06-19T09:41:14;2.83;;;1.52;;
22780;SDS011;11557;50.884;4.322;2023-06-19T09:43:44;4.43;;;1.83;;
22780;SDS011;11557;50.884;4.322;2023-06-19T09:46:12;3.45;;;1.85;;
22780;SDS011;11557;50.884;4.322;2023-06-19T09:48:41;2.17;;;1.67;;
22780;SDS011;11557;50.884;4.322;2023-06-19T09:51:23;6.18;;;1.45;;
22780;SDS011;11557;50.884;4.322;2023-06-19T09:54:02;5.38;;;1.15;;
22780;SDS011;11557;50.884;4.322;2023-06-19T09:56:30;2.40;;;1.50;;
22780;SDS011;11557;50.884;4.322;2023-06-19T09:58:56;2.80;;;1.58;;
22780;SDS011;11557;50.884;4.322;2023-06-19T10:01:25;2.55;;;1.40;;
22780;SDS011;11557;50.884;4.322;2023-06-19T10:04:05;3.45;;;1.08;;
22780;SDS011;11557;50.884;4.322;2023-06-19T10:06:32;5.45;;;1.70;;
22780;SDS011;11557;50.884;4.322;2023-06-19T10:09:08;2.50;;;1.75;;
22780;SDS011;11557;50.884;4.322;2023-06-19T10:11:47;8.40;;;1.63;;
22780;SDS011;11557;50.884;4.322;2023-06-19T10:14:17;3.50;;;1.73;;
22780;SDS011;11557;50.884;4.322;2023-06-19T10:16:44;3.88;;;1.73;;
22780;SDS011;11557;50.884;4.322;2023-06-19T10:19:14;3.42;;;1.67;;
22780;SDS011;11557;50.884;4.322;2023-06-19T10:21:44;5.97;;;2.20;;
22780;SDS011;11557;50.884;4.322;2023-06-19T10:26:54;1.73;;;1.48;;
22780;SDS011;11557;50.884;4.322;2023-06-19T10:29:24;3.63;;;1.92;;
22780;SDS011;11557;50.884;4.322;2023-06-19T10:31:52;8.27;;;1.63;;
22780;SDS011;11557;50.884;4.322;2023-06-19T10:34:17;4.60;;;1.80;;
22780;SDS011;11557;50.884;4.322;2023-06-19T10:36:43;3.00;;;1.83;;
22780;SDS011;11557;50.884;4.322;2023-06-19T10:39:09;2.20;;;2.00;;
22780;SDS011;11557;50.884;4.322;2023-06-19T10:41:35;3.03;;;1.80;;
22780;SDS011;11557;50.884;4.322;2023-06-19T10:44:05;2.40;;;1.70;;
22780;SDS011;11557;50.884;4.322;2023-06-19T10:46:37;3.97;;;2.55;;
22780;SDS011;11557;50.884;4.322;2023-06-19T10:49:04;5.45;;;1.83;;
22780;SDS011;11557;50.884;4.322;2023-06-19T10:51:35;3.60;;;2.10;;
22780;SDS011;11557;50.884;4.322;2023-06-19T10:54:02;2.45;;;1.25;;
22780;SDS011;11557;50.884;4.322;2023-06-19T10:56:28;4.75;;;2.42;;
22780;SDS011;11557;50.884;4.322;2023-06-19T11:04:04;2.40;;;1.70;;
22780;SDS011;11557;50.884;4.322;2023-06-19T11:06:31;4.68;;;1.60;;
22780;SDS011;11557;50.884;4.322;2023-06-19T11:08:58;3.22;;;1.58;;
22780;SDS011;11557;50.884;4.322;2023-06-19T11:11:34;1.70;;;1.42;;
22780;SDS011;11557;50.884;4.322;2023-06-19T11:14:00;5.13;;;2.03;;
22780;SDS011;11557;50.884;4.322;2023-06-19T11:16:26;3.97;;;2.30;;
22780;SDS011;11557;50.884;4.322;2023-06-19T11:18:55;4.00;;;2.30;;
22780;SDS011;11557;50.884;4.322;2023-06-19T11:21:28;3.60;;;2.17;;
22780;SDS011;11557;50.884;4.322;2023-06-19T11:23:57;3.50;;;1.95;;
22780;SDS011;11557;50.884;4.322;2023-06-19T11:26:24;3.38;;;1.55;;
22780;SDS011;11557;50.884;4.322;2023-06-19T11:28:50;3.20;;;1.88;;
22780;SDS011;11557;50.884;4.322;2023-06-19T11:31:15;3.35;;;2.13;;
22780;SDS011;11557;50.884;4.322;2023-06-19T11:33:41;2.65;;;1.88;;
22780;SDS011;11557;50.884;4.322;2023-06-19T11:36:07;3.17;;;1.75;;
22780;SDS011;11557;50.884;4.322;2023-06-19T11:38:35;3.00;;;1.98;;
22780;SDS011;11557;50.884;4.322;2023-06-19T11:41:01;4.60;;;2.20;;
22780;SDS011;11557;50.884;4.322;2023-06-19T11:43:28;11.40;;;2.55;;
22780;SDS011;11557;50.884;4.322;2023-06-19T11:46:03;5.60;;;2.85;;
22780;SDS011;11557;50.884;4.322;2023-06-19T11:48:30;3.65;;;1.90;;
22780;SDS011;11557;50.884;4.322;2023-06-19T11:50:56;4.20;;;1.80;;
22780;SDS011;11557;50.884;4.322;2023-06-19T11:53:22;3.83;;;1.65;;
22780;SDS011;11557;50.884;4.322;2023-06-19T11:55:49;2.80;;;1.55;;
22780;SDS011;11557;50.884;4.322;2023-06-19T11:58:17;1.48;;;1.35;;
22780;SDS011;11557;50.884;4.322;2023-06-19T12:00:45;6.78;;;2.13;;
22780;SDS011;11557;50.884;4.322;2023-06-19T12:03:11;4.05;;;1.77;;
22780;SDS011;11557;50.884;4.322;2023-06-19T12:05:37;2.92;;;2.00;;
22780;SDS011;11557;50.884;4.322;2023-06-19T12:08:03;7.43;;;2.13;;
22780;SDS011;11557;50.884;4.322;2023-06-19T12:10:31;5.78;;;2.55;;
22780;SDS011;11557;50.884;4.322;2023-06-19T12:12:57;6.10;;;1.95;;
22780;SDS011;11557;50.884;4.322;2023-06-19T12:15:23;5.70;;;2.83;;
22780;SDS011;11557;50.884;4.322;2023-06-19T12:17:50;12.60;;;2.42;;
22780;SDS011;11557;50.884;4.322;2023-06-19T12:20:16;3.70;;;1.80;;
22780;SDS011;11557;50.884;4.322;2023-06-19T12:22:42;3.88;;;2.08;;
22780;SDS011;11557;50.884;4.322;2023-06-19T12:25:08;4.28;;;1.98;;
22780;SDS011;11557;50.884;4.322;2023-06-19T12:27:34;4.00;;;2.60;;
22780;SDS011;11557;50.884;4.322;2023-06-19T12:29:59;2.10;;;1.45;;
22780;SDS011;11557;50.884;4.322;2023-06-19T12:32:25;2.33;;;1.65;;
22780;SDS011;11557;50.884;4.322;2023-06-19T12:34:51;6.55;;;2.60;;
22780;SDS011;11557;50.884;4.322;2023-06-19T12:37:19;8.52;;;2.70;;
22780;SDS011;11557;50.884;4.322;2023-06-19T12:39:46;7.40;;;3.22;;
22780;SDS011;11557;50.884;4.322;2023-06-19T12:42:12;5.90;;;2.67;;
22780;SDS011;11557;50.884;4.322;2023-06-19T12:44:40;5.93;;;2.58;;
22780;SDS011;11557;50.884;4.322;2023-06-19T12:47:06;4.88;;;2.55;;
22780;SDS011;11557;50.884;4.322;2023-06-19T12:49:32;4.60;;;2.20;;
22780;SDS011;11557;50.884;4.322;2023-06-19T12:51:58;3.28;;;1.85;;
22780;SDS011;11557;50.884;4.322;2023-06-19T12:54:25;3.90;;;1.45;;
22780;SDS011;11557;50.884;4.322;2023-06-19T12:56:51;3.35;;;1.90;;
22780;SDS011;11557;50.884;4.322;2023-06-19T12:59:17;3.55;;;1.65;;
22780;SDS011;11557;50.884;4.322;2023-06-19T13:01:43;6.63;;;1.83;;
22780;SDS011;11557;50.884;4.322;2023-06-19T13:04:09;2.92;;;1.75;;
22780;SDS011;11557;50.884;4.322;2023-06-19T13:06:36;6.65;;;1.95;;
22780;SDS011;11557;50.884;4.322;2023-06-19T13:09:02;4.15;;;2.03;;
22780;SDS011;11557;50.884;4.322;2023-06-19T13:11:29;2.30;;;1.75;;
22780;SDS011;11557;50.884;4.322;2023-06-19T13:13:56;3.08;;;2.03;;
22780;SDS011;11557;50.884;4.322;2023-06-19T13:16:21;4.35;;;2.22;;
22780;SDS011;11557;50.884;4.322;2023-06-19T13:18:50;4.25;;;1.73;;
22780;SDS011;11557;50.884;4.322;2023-06-19T13:21:15;3.05;;;1.90;;
22780;SDS011;11557;50.884;4.322;2023-06-19T13:23:41;5.85;;;2.47;;
22780;SDS011;11557;50.884;4.322;2023-06-19T13:26:07;3.92;;;2.08;;
22780;SDS011;11557;50.884;4.322;2023-06-19T13:28:32;3.13;;;1.17;;
22780;SDS011;11557;50.884;4.322;2023-06-19T13:30:58;1.65;;;1.35;;
22780;SDS011;11557;50.884;4.322;2023-06-19T13:33:25;1.98;;;1.75;;
22780;SDS011;11557;50.884;4.322;2023-06-19T13:35:50;3.03;;;1.40;;
22780;SDS011;11557;50.884;4.322;2023-06-19T13:38:17;2.75;;;1.30;;
22780;SDS011;11557;50.884;4.322;2023-06-19T13:40:43;4.07;;;1.70;;
22780;SDS011;11557;50.884;4.322;2023-06-19T13:43:09;2.05;;;1.20;;
22780;SDS011;11557;50.884;4.322;2023-06-19T13:45:35;2.38;;;1.65;;
22780;SDS011;11557;50.884;4.322;2023-06-19T13:48:01;5.35;;;1.55;;
22780;SDS011;11557;50.884;4.322;2023-06-19T13:50:26;3.55;;;1.83;;
22780;SDS011;11557;50.884;4.322;2023-06-19T13:52:52;5.80;;;2.13;;
22780;SDS011;11557;50.884;4.322;2023-06-19T13:55:19;2.38;;;1.50;;
22780;SDS011;11557;50.884;4.322;2023-06-19T13:57:45;2.08;;;1.20;;
22780;SDS011;11557;50.884;4.322;2023-06-19T14:00:11;7.07;;;1.98;;
22780;SDS011;11557;50.884;4.322;2023-06-19T14:02:37;2.83;;;1.45;;
22780;SDS011;11557;50.884;4.322;2023-06-19T14:05:04;2.92;;;1.50;;
22780;SDS011;11557;50.884;4.322;2023-06-19T14:07:31;6.53;;;2.03;;
22780;SDS011;11557;50.884;4.322;2023-06-19T14:09:57;1.52;;;0.80;;
22780;SDS011;11557;50.884;4.322;2023-06-19T14:12:23;2.05;;;0.82;;
22780;SDS011;11557;50.884;4.322;2023-06-19T14:14:48;2.20;;;1.10;;
22780;SDS011;11557;50.884;4.322;2023-06-19T14:17:14;2.97;;;1.17;;
22780;SDS011;11557;50.884;4.322;2023-06-19T14:19:40;1.40;;;1.02;;
22780;SDS011;11557;50.884;4.322;2023-06-19T14:22:05;0.95;;;0.80;;
22780;SDS011;11557;50.884;4.322;2023-06-19T14:24:31;2.42;;;0.90;;
22780;SDS011;11557;50.884;4.322;2023-06-19T14:26:57;1.23;;;1.08;;
22780;SDS011;11557;50.884;4.322;2023-06-19T14:29:22;1.88;;;1.25;;
22780;SDS011;11557;50.884;4.322;2023-06-19T14:31:50;3.20;;;0.85;;
22780;SDS011;11557;50.884;4.322;2023-06-19T14:34:16;1.45;;;1.00;;
22780;SDS011;11557;50.884;4.322;2023-06-19T14:36:42;1.42;;;1.17;;
22780;SDS011;11557;50.884;4.322;2023-06-19T14:39:07;2.13;;;1.38;;
22780;SDS011;11557;50.884;4.322;2023-06-19T14:41:33;2.45;;;1.00;;
22780;SDS011;11557;50.884;4.322;2023-06-19T14:43:59;1.38;;;0.77;;
22780;SDS011;11557;50.884;4.322;2023-06-19T14:46:24;1.92;;;0.95;;
22780;SDS011;11557;50.884;4.322;2023-06-19T14:48:50;2.47;;;1.30;;
22780;SDS011;11557;50.884;4.322;2023-06-19T14:51:16;2.50;;;1.55;;
22780;SDS011;11557;50.884;4.322;2023-06-19T14:53:41;1.30;;;0.90;;
22780;SDS011;11557;50.884;4.322;2023-06-19T14:56:07;0.95;;;0.60;;
22780;SDS011;11557;50.884;4.322;2023-06-19T14:58:33;1.63;;;1.08;;
22780;SDS011;11557;50.884;4.322;2023-06-19T15:00:58;2.28;;;1.33;;